sensor_id;sensor_type;location;lat;lon;timestamp;temperature;humidity
2955;DHT22;1487;51.470;6.938;2024-01-06T00:02:00;6.40;99.90
2955;DHT22;1487;51.470;6.938;2024-01-06T00:04:28;6.40;99.90
2955;DHT22;1487;51.470;6.938;2024-01-06T00:06:55;6.40;99.90
2955;DHT22;1487;51.470;6.938;2024-01-06T00:09:22;6.40;99.90
2955;DHT22;1487;51.470;6.938;2024-01-06T00:11:48;6.40;99.90
2955;DHT22;1487;51.470;6.938;2024-01-06T00:14:15;6.40;99.90
2955;DHT22;1487;51.470;6.938;2024-01-06T00:16:42;6.40;99.90
2955;DHT22;1487;51.470;6.938;2024-01-06T00:19:09;6.30;99.90
2955;DHT22;1487;51.470;6.938;2024-01-06T00:21:37;6.40;99.90
2955;DHT22;1487;51.470;6.938;2024-01-06T00:24:04;6.40;99.90
2955;DHT22;1487;51.470;6.938;2024-01-06T00:26:31;6.30;99.90
2955;DHT22;1487;51.470;6.938;2024-01-06T00:28:58;6.40;99.90
2955;DHT22;1487;51.470;6.938;2024-01-06T00:31:25;6.40;99.90
2955;DHT22;1487;51.470;6.938;2024-01-06T00:33:51;6.40;99.90
2955;DHT22;1487;51.470;6.938;2024-01-06T00:36:18;6.40;99.90
2955;DHT22;1487;51.470;6.938;2024-01-06T00:38:46;6.40;99.90
2955;DHT22;1487;51.470;6.938;2024-01-06T00:41:13;6.40;99.90
2955;DHT22;1487;51.470;6.938;2024-01-06T00:43:40;6.50;99.90
2955;DHT22;1487;51.470;6.938;2024-01-06T00:46:07;6.40;99.90
2955;DHT22;1487;51.470;6.938;2024-01-06T00:48:34;6.50;99.90
2955;DHT22;1487;51.470;6.938;2024-01-06T00:51:00;6.50;99.90
2955;DHT22;1487;51.470;6.938;2024-01-06T00:53:27;6.50;99.90
2955;DHT22;1487;51.470;6.938;2024-01-06T00:55:55;6.50;99.90
2955;DHT22;1487;51.470;6.938;2024-01-06T00:58:22;6.50;99.90
2955;DHT22;1487;51.470;6.938;2024-01-06T01:00:49;6.50;99.90
2955;DHT22;1487;51.470;6.938;2024-01-06T01:03:16;6.60;99.90
2955;DHT22;1487;51.470;6.938;2024-01-06T01:05:43;6.50;99.90
2955;DHT22;1487;51.470;6.938;2024-01-06T01:08:09;6.50;99.90
2955;DHT22;1487;51.470;6.938;2024-01-06T01:10:36;6.50;99.90
2955;DHT22;1487;51.470;6.938;2024-01-06T01:13:05;6.50;99.90
2955;DHT22;1487;51.470;6.938;2024-01-06T01:15:31;6.50;99.90
2955;DHT22;1487;51.470;6.938;2024-01-06T01:17:58;6.50;99.90
2955;DHT22;1487;51.470;6.938;2024-01-06T01:20:25;6.50;99.90
2955;DHT22;1487;51.470;6.938;2024-01-06T01:22:52;6.60;99.90
2955;DHT22;1487;51.470;6.938;2024-01-06T01:25:18;6.60;99.90
2955;DHT22;1487;51.470;6.938;2024-01-06T01:27:45;6.60;99.90
2955;DHT22;1487;51.470;6.938;2024-01-06T01:30:13;6.60;99.90
2955;DHT22;1487;51.470;6.938;2024-01-06T01:32:40;6.60;99.90
2955;DHT22;1487;51.470;6.938;2024-01-06T01:35:07;6.60;99.90
2955;DHT22;1487;51.470;6.938;2024-01-06T01:37:34;6.60;99.90
2955;DHT22;1487;51.470;6.938;2024-01-06T01:40:01;6.60;99.90
2955;DHT22;1487;51.470;6.938;2024-01-06T01:42:28;6.60;99.90
2955;DHT22;1487;51.470;6.938;2024-01-06T01:44:55;6.60;99.90
2955;DHT22;1487;51.470;6.938;2024-01-06T01:47:23;6.60;99.90
2955;DHT22;1487;51.470;6.938;2024-01-06T01:49:50;6.60;99.90
2955;DHT22;1487;51.470;6.938;2024-01-06T01:52:17;6.70;99.90
2955;DHT22;1487;51.470;6.938;2024-01-06T01:54:45;6.70;99.90
2955;DHT22;1487;51.470;6.938;2024-01-06T01:57:13;6.70;99.90
2955;DHT22;1487;51.470;6.938;2024-01-06T01:59:40;6.60;99.90
2955;DHT22;1487;51.470;6.938;2024-01-06T02:02:08;6.60;99.90
2955;DHT22;1487;51.470;6.938;2024-01-06T02:04:36;6.60;99.90
2955;DHT22;1487;51.470;6.938;2024-01-06T02:07:03;6.60;99.90
2955;DHT22;1487;51.470;6.938;2024-01-06T02:09:30;6.60;99.90
2955;DHT22;1487;51.470;6.938;2024-01-06T02:11:57;6.60;99.90
2955;DHT22;1487;51.470;6.938;2024-01-06T02:14:24;6.60;99.90
2955;DHT22;1487;51.470;6.938;2024-01-06T02:16:51;6.60;99.90
2955;DHT22;1487;51.470;6.938;2024-01-06T02:19:18;6.60;99.90
2955;DHT22;1487;51.470;6.938;2024-01-06T02:21:49;6.50;99.90
2955;DHT22;1487;51.470;6.938;2024-01-06T02:24:15;6.60;99.90
2955;DHT22;1487;51.470;6.938;2024-01-06T02:26:42;6.50;99.90
2955;DHT22;1487;51.470;6.938;2024-01-06T02:29:09;6.50;99.90
2955;DHT22;1487;51.470;6.938;2024-01-06T02:31:36;6.60;99.90
2955;DHT22;1487;51.470;6.938;2024-01-06T02:34:02;6.60;99.90
2955;DHT22;1487;51.470;6.938;2024-01-06T02:36:29;6.60;99.90
2955;DHT22;1487;51.470;6.938;2024-01-06T02:38:57;6.60;99.90
2955;DHT22;1487;51.470;6.938;2024-01-06T02:41:24;6.60;99.90
2955;DHT22;1487;51.470;6.938;2024-01-06T02:43:50;6.60;99.90
2955;DHT22;1487;51.470;6.938;2024-01-06T02:46:17;6.60;99.90
2955;DHT22;1487;51.470;6.938;2024-01-06T02:48:44;6.50;99.90
2955;DHT22;1487;51.470;6.938;2024-01-06T02:51:11;6.50;99.90
2955;DHT22;1487;51.470;6.938;2024-01-06T02:53:38;6.50;99.90
2955;DHT22;1487;51.470;6.938;2024-01-06T02:56:09;6.40;99.90
2955;DHT22;1487;51.470;6.938;2024-01-06T02:58:36;6.50;99.90
2955;DHT22;1487;51.470;6.938;2024-01-06T03:01:03;6.50;99.90
2955;DHT22;1487;51.470;6.938;2024-01-06T03:03:30;6.50;99.90
2955;DHT22;1487;51.470;6.938;2024-01-06T03:05:57;6.50;99.90
2955;DHT22;1487;51.470;6.938;2024-01-06T03:08:23;6.50;99.90
2955;DHT22;1487;51.470;6.938;2024-01-06T03:10:50;6.50;99.90
2955;DHT22;1487;51.470;6.938;2024-01-06T03:13:18;6.50;99.90
2955;DHT22;1487;51.470;6.938;2024-01-06T03:15:45;6.50;99.90
2955;DHT22;1487;51.470;6.938;2024-01-06T03:18:12;6.50;99.90
2955;DHT22;1487;51.470;6.938;2024-01-06T03:20:39;6.40;99.90
2955;DHT22;1487;51.470;6.938;2024-01-06T03:23:05;6.40;99.90
2955;DHT22;1487;51.470;6.938;2024-01-06T03:25:32;6.30;99.90
2955;DHT22;1487;51.470;6.938;2024-01-06T03:27:59;6.30;99.90
2955;DHT22;1487;51.470;6.938;2024-01-06T03:30:27;6.20;99.90
2955;DHT22;1487;51.470;6.938;2024-01-06T03:32:53;6.20;99.90
2955;DHT22;1487;51.470;6.938;2024-01-06T03:35:20;6.10;99.90
2955;DHT22;1487;51.470;6.938;2024-01-06T03:37:47;5.90;99.90
2955;DHT22;1487;51.470;6.938;2024-01-06T03:40:14;5.90;99.90
2955;DHT22;1487;51.470;6.938;2024-01-06T03:42:40;5.80;99.90
2955;DHT22;1487;51.470;6.938;2024-01-06T03:45:08;5.70;99.90
2955;DHT22;1487;51.470;6.938;2024-01-06T03:47:36;5.70;99.90
2955;DHT22;1487;51.470;6.938;2024-01-06T03:50:03;5.70;99.90
2955;DHT22;1487;51.470;6.938;2024-01-06T03:52:30;5.70;99.90
2955;DHT22;1487;51.470;6.938;2024-01-06T03:54:57;5.60;99.90
2955;DHT22;1487;51.470;6.938;2024-01-06T03:57:23;5.60;99.90
2955;DHT22;1487;51.470;6.938;2024-01-06T03:59:50;5.60;99.90
2955;DHT22;1487;51.470;6.938;2024-01-06T04:02:17;5.50;99.90
2955;DHT22;1487;51.470;6.938;2024-01-06T04:04:45;5.50;99.90
2955;DHT22;1487;51.470;6.938;2024-01-06T04:07:12;5.50;99.90
2955;DHT22;1487;51.470;6.938;2024-01-06T04:09:42;5.50;99.90
2955;DHT22;1487;51.470;6.938;2024-01-06T04:12:08;5.40;99.90
2955;DHT22;1487;51.470;6.938;2024-01-06T04:14:35;5.40;99.90
2955;DHT22;1487;51.470;6.938;2024-01-06T04:17:02;5.40;99.90
2955;DHT22;1487;51.470;6.938;2024-01-06T04:19:29;5.40;99.90
2955;DHT22;1487;51.470;6.938;2024-01-06T04:21:57;5.40;99.90
2955;DHT22;1487;51.470;6.938;2024-01-06T04:24:24;5.40;99.90
2955;DHT22;1487;51.470;6.938;2024-01-06T04:26:50;5.40;99.90
2955;DHT22;1487;51.470;6.938;2024-01-06T04:29:17;5.40;99.90
2955;DHT22;1487;51.470;6.938;2024-01-06T04:31:44;5.40;99.90
2955;DHT22;1487;51.470;6.938;2024-01-06T04:34:11;5.40;99.90
2955;DHT22;1487;51.470;6.938;2024-01-06T04:36:37;5.40;99.90
2955;DHT22;1487;51.470;6.938;2024-01-06T04:39:05;5.40;99.90
2955;DHT22;1487;51.470;6.938;2024-01-06T04:41:32;5.40;99.90
2955;DHT22;1487;51.470;6.938;2024-01-06T04:43:59;5.40;99.90
2955;DHT22;1487;51.470;6.938;2024-01-06T04:46:26;5.40;99.90
2955;DHT22;1487;51.470;6.938;2024-01-06T04:48:52;5.40;99.90
2955;DHT22;1487;51.470;6.938;2024-01-06T04:51:19;5.30;99.90
2955;DHT22;1487;51.470;6.938;2024-01-06T04:53:46;5.30;99.90
2955;DHT22;1487;51.470;6.938;2024-01-06T04:56:14;5.30;99.90
2955;DHT22;1487;51.470;6.938;2024-01-06T04:58:41;5.40;99.90
2955;DHT22;1487;51.470;6.938;2024-01-06T05:01:08;5.30;99.90
2955;DHT22;1487;51.470;6.938;2024-01-06T05:03:34;5.30;99.90
2955;DHT22;1487;51.470;6.938;2024-01-06T05:06:00;5.30;99.90
2955;DHT22;1487;51.470;6.938;2024-01-06T05:08:27;5.30;99.90
2955;DHT22;1487;51.470;6.938;2024-01-06T05:10:56;5.30;99.90
2955;DHT22;1487;51.470;6.938;2024-01-06T05:13:24;5.30;99.90
2955;DHT22;1487;51.470;6.938;2024-01-06T05:15:51;5.30;99.90
2955;DHT22;1487;51.470;6.938;2024-01-06T05:18:18;5.30;99.90
2955;DHT22;1487;51.470;6.938;2024-01-06T05:20:44;5.30;99.90
2955;DHT22;1487;51.470;6.938;2024-01-06T05:23:11;5.30;99.90
2955;DHT22;1487;51.470;6.938;2024-01-06T05:25:38;5.30;99.90
2955;DHT22;1487;51.470;6.938;2024-01-06T05:28:05;5.30;99.90
2955;DHT22;1487;51.470;6.938;2024-01-06T05:30:33;5.30;99.90
2955;DHT22;1487;51.470;6.938;2024-01-06T05:33:00;5.30;99.90
2955;DHT22;1487;51.470;6.938;2024-01-06T05:35:28;5.30;99.90
2955;DHT22;1487;51.470;6.938;2024-01-06T05:37:55;5.30;99.90
2955;DHT22;1487;51.470;6.938;2024-01-06T05:40:22;5.30;99.90
2955;DHT22;1487;51.470;6.938;2024-01-06T05:42:48;5.30;99.90
2955;DHT22;1487;51.470;6.938;2024-01-06T05:45:17;5.30;99.90
2955;DHT22;1487;51.470;6.938;2024-01-06T05:47:45;5.30;99.90
2955;DHT22;1487;51.470;6.938;2024-01-06T05:50:15;5.30;99.90
2955;DHT22;1487;51.470;6.938;2024-01-06T05:52:42;5.30;99.90
2955;DHT22;1487;51.470;6.938;2024-01-06T05:55:09;5.20;99.90
2955;DHT22;1487;51.470;6.938;2024-01-06T05:57:36;5.20;99.90
2955;DHT22;1487;51.470;6.938;2024-01-06T06:00:03;5.20;99.90
2955;DHT22;1487;51.470;6.938;2024-01-06T06:02:30;5.20;99.90
2955;DHT22;1487;51.470;6.938;2024-01-06T06:04:58;5.20;99.90
2955;DHT22;1487;51.470;6.938;2024-01-06T06:07:25;5.20;99.90
2955;DHT22;1487;51.470;6.938;2024-01-06T06:09:52;5.20;99.90
2955;DHT22;1487;51.470;6.938;2024-01-06T06:12:19;5.20;99.90
2955;DHT22;1487;51.470;6.938;2024-01-06T06:14:46;5.20;99.90
2955;DHT22;1487;51.470;6.938;2024-01-06T06:17:13;5.10;99.90
2955;DHT22;1487;51.470;6.938;2024-01-06T06:19:39;5.20;99.90
2955;DHT22;1487;51.470;6.938;2024-01-06T06:22:07;5.10;99.90
2955;DHT22;1487;51.470;6.938;2024-01-06T06:24:34;5.10;99.90
2955;DHT22;1487;51.470;6.938;2024-01-06T06:27:01;5.10;99.90
2955;DHT22;1487;51.470;6.938;2024-01-06T06:29:28;5.10;99.90
2955;DHT22;1487;51.470;6.938;2024-01-06T06:31:55;5.00;99.90
2955;DHT22;1487;51.470;6.938;2024-01-06T06:34:21;5.00;99.90
2955;DHT22;1487;51.470;6.938;2024-01-06T06:36:48;5.00;99.90
2955;DHT22;1487;51.470;6.938;2024-01-06T06:39:16;5.00;99.90
2955;DHT22;1487;51.470;6.938;2024-01-06T06:41:43;5.00;99.90
2955;DHT22;1487;51.470;6.938;2024-01-06T06:44:10;5.00;99.90
2955;DHT22;1487;51.470;6.938;2024-01-06T06:46:37;5.00;99.90
2955;DHT22;1487;51.470;6.938;2024-01-06T06:49:04;5.00;99.90
2955;DHT22;1487;51.470;6.938;2024-01-06T06:51:31;5.00;99.90
2955;DHT22;1487;51.470;6.938;2024-01-06T06:53:57;5.00;99.90
2955;DHT22;1487;51.470;6.938;2024-01-06T06:56:26;5.00;99.90
2955;DHT22;1487;51.470;6.938;2024-01-06T06:58:53;5.00;99.90
2955;DHT22;1487;51.470;6.938;2024-01-06T07:01:19;5.00;99.90
2955;DHT22;1487;51.470;6.938;2024-01-06T07:03:46;5.00;99.90
2955;DHT22;1487;51.470;6.938;2024-01-06T07:06:13;5.00;99.90
2955;DHT22;1487;51.470;6.938;2024-01-06T07:08:40;5.00;99.90
2955;DHT22;1487;51.470;6.938;2024-01-06T07:11:08;5.00;99.90
2955;DHT22;1487;51.470;6.938;2024-01-06T07:13:38;5.00;99.90
2955;DHT22;1487;51.470;6.938;2024-01-06T07:16:05;5.00;99.90
2955;DHT22;1487;51.470;6.938;2024-01-06T07:18:32;5.00;99.90
2955;DHT22;1487;51.470;6.938;2024-01-06T07:20:59;5.00;99.90
2955;DHT22;1487;51.470;6.938;2024-01-06T07:23:26;5.00;99.90
2955;DHT22;1487;51.470;6.938;2024-01-06T07:25:52;5.10;99.90
2955;DHT22;1487;51.470;6.938;2024-01-06T07:28:21;5.00;99.90
2955;DHT22;1487;51.470;6.938;2024-01-06T07:30:49;5.00;99.90
2955;DHT22;1487;51.470;6.938;2024-01-06T07:33:16;5.00;99.90
2955;DHT22;1487;51.470;6.938;2024-01-06T07:35:43;5.00;99.90
2955;DHT22;1487;51.470;6.938;2024-01-06T07:38:10;4.80;99.90
2955;DHT22;1487;51.470;6.938;2024-01-06T07:40:36;4.80;99.90
2955;DHT22;1487;51.470;6.938;2024-01-06T07:43:03;4.80;99.90
2955;DHT22;1487;51.470;6.938;2024-01-06T07:45:30;4.70;99.90
2955;DHT22;1487;51.470;6.938;2024-01-06T07:47:59;4.70;99.90
2955;DHT22;1487;51.470;6.938;2024-01-06T07:50:26;4.60;99.90
2955;DHT22;1487;51.470;6.938;2024-01-06T07:52:53;4.60;99.90
2955;DHT22;1487;51.470;6.938;2024-01-06T07:55:20;4.60;99.90
2955;DHT22;1487;51.470;6.938;2024-01-06T07:57:47;4.60;99.90
2955;DHT22;1487;51.470;6.938;2024-01-06T08:00:14;4.60;99.90
2955;DHT22;1487;51.470;6.938;2024-01-06T08:02:41;4.60;99.90
2955;DHT22;1487;51.470;6.938;2024-01-06T08:05:09;4.50;99.90
2955;DHT22;1487;51.470;6.938;2024-01-06T08:07:36;4.50;99.90
2955;DHT22;1487;51.470;6.938;2024-01-06T08:10:03;4.50;99.90
2955;DHT22;1487;51.470;6.938;2024-01-06T08:12:31;4.50;99.90
2955;DHT22;1487;51.470;6.938;2024-01-06T08:14:58;4.50;99.90
2955;DHT22;1487;51.470;6.938;2024-01-06T08:17:24;4.50;99.90
2955;DHT22;1487;51.470;6.938;2024-01-06T08:19:51;4.50;99.90
2955;DHT22;1487;51.470;6.938;2024-01-06T08:22:19;4.50;99.90
2955;DHT22;1487;51.470;6.938;2024-01-06T08:24:46;4.60;99.90
2955;DHT22;1487;51.470;6.938;2024-01-06T08:27:12;4.50;99.90
2955;DHT22;1487;51.470;6.938;2024-01-06T08:29:39;4.50;99.90
2955;DHT22;1487;51.470;6.938;2024-01-06T08:32:06;4.50;99.90
2955;DHT22;1487;51.470;6.938;2024-01-06T08:34:33;4.50;99.90
2955;DHT22;1487;51.470;6.938;2024-01-06T08:37:00;4.50;99.90
2955;DHT22;1487;51.470;6.938;2024-01-06T08:39:28;4.40;99.90
2955;DHT22;1487;51.470;6.938;2024-01-06T08:41:55;4.50;99.90
2955;DHT22;1487;51.470;6.938;2024-01-06T08:44:22;4.40;99.90
2955;DHT22;1487;51.470;6.938;2024-01-06T08:46:49;4.40;99.90
2955;DHT22;1487;51.470;6.938;2024-01-06T08:49:16;4.40;99.90
2955;DHT22;1487;51.470;6.938;2024-01-06T08:51:43;4.40;99.90
2955;DHT22;1487;51.470;6.938;2024-01-06T08:54:10;4.50;99.90
2955;DHT22;1487;51.470;6.938;2024-01-06T08:56:38;4.50;99.90
2955;DHT22;1487;51.470;6.938;2024-01-06T08:59:04;4.50;99.90
2955;DHT22;1487;51.470;6.938;2024-01-06T09:01:31;4.50;99.90
2955;DHT22;1487;51.470;6.938;2024-01-06T09:03:59;4.50;99.90
2955;DHT22;1487;51.470;6.938;2024-01-06T09:06:26;4.50;99.90
2955;DHT22;1487;51.470;6.938;2024-01-06T09:08:53;4.50;99.90
2955;DHT22;1487;51.470;6.938;2024-01-06T09:11:20;4.50;99.90
2955;DHT22;1487;51.470;6.938;2024-01-06T09:13:48;4.60;99.90
2955;DHT22;1487;51.470;6.938;2024-01-06T09:16:18;4.60;99.90
2955;DHT22;1487;51.470;6.938;2024-01-06T09:18:44;4.60;99.90
2955;DHT22;1487;51.470;6.938;2024-01-06T09:21:11;4.60;99.90
2955;DHT22;1487;51.470;6.938;2024-01-06T09:23:38;4.60;99.90
2955;DHT22;1487;51.470;6.938;2024-01-06T09:26:04;4.50;99.90
2955;DHT22;1487;51.470;6.938;2024-01-06T09:28:31;4.60;99.90
2955;DHT22;1487;51.470;6.938;2024-01-06T09:30:59;4.50;99.90
2955;DHT22;1487;51.470;6.938;2024-01-06T09:33:26;4.50;99.90
2955;DHT22;1487;51.470;6.938;2024-01-06T09:35:53;4.60;99.90
2955;DHT22;1487;51.470;6.938;2024-01-06T09:38:20;4.50;99.90
2955;DHT22;1487;51.470;6.938;2024-01-06T09:40:48;4.50;99.90
2955;DHT22;1487;51.470;6.938;2024-01-06T09:43:15;4.60;99.90
2955;DHT22;1487;51.470;6.938;2024-01-06T09:45:42;4.60;99.90
2955;DHT22;1487;51.470;6.938;2024-01-06T09:48:12;4.50;99.90
2955;DHT22;1487;51.470;6.938;2024-01-06T09:50:41;4.50;99.90
2955;DHT22;1487;51.470;6.938;2024-01-06T09:53:09;4.50;99.90
2955;DHT22;1487;51.470;6.938;2024-01-06T09:55:37;4.50;99.90
2955;DHT22;1487;51.470;6.938;2024-01-06T09:58:04;4.40;99.90
2955;DHT22;1487;51.470;6.938;2024-01-06T10:00:31;4.40;99.90
2955;DHT22;1487;51.470;6.938;2024-01-06T10:02:59;4.40;99.90
2955;DHT22;1487;51.470;6.938;2024-01-06T10:05:27;4.40;99.90
2955;DHT22;1487;51.470;6.938;2024-01-06T10:07:53;4.40;99.90
2955;DHT22;1487;51.470;6.938;2024-01-06T10:10:22;4.40;99.90
2955;DHT22;1487;51.470;6.938;2024-01-06T10:12:53;4.40;99.90
2955;DHT22;1487;51.470;6.938;2024-01-06T10:15:20;4.40;99.90
2955;DHT22;1487;51.470;6.938;2024-01-06T10:17:47;4.40;99.90
2955;DHT22;1487;51.470;6.938;2024-01-06T10:20:15;4.40;99.90
2955;DHT22;1487;51.470;6.938;2024-01-06T10:22:45;4.30;99.90
2955;DHT22;1487;51.470;6.938;2024-01-06T10:25:12;4.30;99.90
2955;DHT22;1487;51.470;6.938;2024-01-06T10:27:40;4.30;99.90
2955;DHT22;1487;51.470;6.938;2024-01-06T10:30:08;4.40;99.90
2955;DHT22;1487;51.470;6.938;2024-01-06T10:32:35;4.30;99.90
2955;DHT22;1487;51.470;6.938;2024-01-06T10:35:01;4.40;99.90
2955;DHT22;1487;51.470;6.938;2024-01-06T10:37:29;4.30;99.90
2955;DHT22;1487;51.470;6.938;2024-01-06T10:40:11;4.40;99.90
2955;DHT22;1487;51.470;6.938;2024-01-06T10:42:40;4.30;99.90
2955;DHT22;1487;51.470;6.938;2024-01-06T10:45:09;4.30;99.90
2955;DHT22;1487;51.470;6.938;2024-01-06T10:47:37;4.30;99.90
2955;DHT22;1487;51.470;6.938;2024-01-06T10:50:03;4.30;99.90
2955;DHT22;1487;51.470;6.938;2024-01-06T10:52:31;4.30;99.90
2955;DHT22;1487;51.470;6.938;2024-01-06T10:54:58;4.20;99.90
2955;DHT22;1487;51.470;6.938;2024-01-06T10:57:27;4.20;99.90
2955;DHT22;1487;51.470;6.938;2024-01-06T10:59:58;4.20;99.90
2955;DHT22;1487;51.470;6.938;2024-01-06T11:02:25;4.20;99.90
2955;DHT22;1487;51.470;6.938;2024-01-06T11:04:52;4.10;99.90
2955;DHT22;1487;51.470;6.938;2024-01-06T11:07:20;4.10;99.90
2955;DHT22;1487;51.470;6.938;2024-01-06T11:09:51;4.10;99.90
2955;DHT22;1487;51.470;6.938;2024-01-06T11:12:19;4.10;99.90
2955;DHT22;1487;51.470;6.938;2024-01-06T11:14:47;4.10;99.90
2955;DHT22;1487;51.470;6.938;2024-01-06T11:17:51;4.10;99.90
2955;DHT22;1487;51.470;6.938;2024-01-06T11:20:21;4.20;99.90
2955;DHT22;1487;51.470;6.938;2024-01-06T11:22:48;4.20;99.90
2955;DHT22;1487;51.470;6.938;2024-01-06T11:25:16;4.10;99.90
2955;DHT22;1487;51.470;6.938;2024-01-06T11:27:43;4.20;99.90
2955;DHT22;1487;51.470;6.938;2024-01-06T11:30:21;4.10;99.90
2955;DHT22;1487;51.470;6.938;2024-01-06T11:32:49;4.10;99.90
2955;DHT22;1487;51.470;6.938;2024-01-06T11:35:18;4.10;99.90
2955;DHT22;1487;51.470;6.938;2024-01-06T11:37:52;4.00;99.90
2955;DHT22;1487;51.470;6.938;2024-01-06T11:40:25;4.00;99.90
2955;DHT22;1487;51.470;6.938;2024-01-06T11:43:01;4.00;99.90
2955;DHT22;1487;51.470;6.938;2024-01-06T11:45:29;4.00;99.90
2955;DHT22;1487;51.470;6.938;2024-01-06T11:47:58;4.00;99.90
2955;DHT22;1487;51.470;6.938;2024-01-06T11:50:25;3.90;99.90
2955;DHT22;1487;51.470;6.938;2024-01-06T11:52:52;3.90;99.90
2955;DHT22;1487;51.470;6.938;2024-01-06T11:55:19;3.90;99.90
2955;DHT22;1487;51.470;6.938;2024-01-06T11:57:47;3.80;99.90
2955;DHT22;1487;51.470;6.938;2024-01-06T12:00:15;3.80;99.90
2955;DHT22;1487;51.470;6.938;2024-01-06T12:02:44;3.70;99.90
2955;DHT22;1487;51.470;6.938;2024-01-06T12:05:15;3.70;99.90
2955;DHT22;1487;51.470;6.938;2024-01-06T12:07:43;3.70;99.90
2955;DHT22;1487;51.470;6.938;2024-01-06T12:10:10;3.60;99.90
2955;DHT22;1487;51.470;6.938;2024-01-06T12:12:37;3.60;99.90
2955;DHT22;1487;51.470;6.938;2024-01-06T12:15:05;3.60;99.90
2955;DHT22;1487;51.470;6.938;2024-01-06T12:17:35;3.60;99.90
2955;DHT22;1487;51.470;6.938;2024-01-06T12:20:04;3.60;99.90
2955;DHT22;1487;51.470;6.938;2024-01-06T12:22:34;3.60;99.90
2955;DHT22;1487;51.470;6.938;2024-01-06T12:25:00;3.60;99.90
2955;DHT22;1487;51.470;6.938;2024-01-06T12:27:30;3.50;99.90
2955;DHT22;1487;51.470;6.938;2024-01-06T12:29:57;3.50;99.90
2955;DHT22;1487;51.470;6.938;2024-01-06T12:32:24;3.50;99.90
2955;DHT22;1487;51.470;6.938;2024-01-06T12:34:51;3.40;99.90
2955;DHT22;1487;51.470;6.938;2024-01-06T12:37:19;3.40;99.90
2955;DHT22;1487;51.470;6.938;2024-01-06T12:39:47;3.40;99.90
2955;DHT22;1487;51.470;6.938;2024-01-06T12:42:15;3.40;99.90
2955;DHT22;1487;51.470;6.938;2024-01-06T12:44:42;3.40;99.90
2955;DHT22;1487;51.470;6.938;2024-01-06T12:47:09;3.40;99.90
2955;DHT22;1487;51.470;6.938;2024-01-06T12:49:37;3.40;99.90
2955;DHT22;1487;51.470;6.938;2024-01-06T12:52:04;3.40;99.90
2955;DHT22;1487;51.470;6.938;2024-01-06T12:54:32;3.40;99.90
2955;DHT22;1487;51.470;6.938;2024-01-06T12:56:59;3.50;99.90
2955;DHT22;1487;51.470;6.938;2024-01-06T12:59:26;3.50;99.90
2955;DHT22;1487;51.470;6.938;2024-01-06T13:01:53;3.50;99.90
2955;DHT22;1487;51.470;6.938;2024-01-06T13:04:20;3.50;99.90
2955;DHT22;1487;51.470;6.938;2024-01-06T13:06:46;3.50;99.90
2955;DHT22;1487;51.470;6.938;2024-01-06T13:09:14;3.40;99.90
2955;DHT22;1487;51.470;6.938;2024-01-06T13:11:43;3.40;99.90
2955;DHT22;1487;51.470;6.938;2024-01-06T13:14:11;3.40;99.90
2955;DHT22;1487;51.470;6.938;2024-01-06T13:16:38;3.40;99.90
2955;DHT22;1487;51.470;6.938;2024-01-06T13:19:05;3.40;99.90
2955;DHT22;1487;51.470;6.938;2024-01-06T13:21:31;3.40;99.90
2955;DHT22;1487;51.470;6.938;2024-01-06T13:23:58;3.40;99.90
2955;DHT22;1487;51.470;6.938;2024-01-06T13:26:28;3.30;99.90
2955;DHT22;1487;51.470;6.938;2024-01-06T13:28:56;3.30;99.90
2955;DHT22;1487;51.470;6.938;2024-01-06T13:31:23;3.30;99.90
2955;DHT22;1487;51.470;6.938;2024-01-06T13:33:50;3.30;99.90
2955;DHT22;1487;51.470;6.938;2024-01-06T13:36:17;3.20;99.90
2955;DHT22;1487;51.470;6.938;2024-01-06T13:38:44;3.20;99.90
2955;DHT22;1487;51.470;6.938;2024-01-06T13:41:11;3.20;99.90
2955;DHT22;1487;51.470;6.938;2024-01-06T13:43:37;3.20;99.90
2955;DHT22;1487;51.470;6.938;2024-01-06T13:46:06;3.20;99.90
2955;DHT22;1487;51.470;6.938;2024-01-06T13:48:32;3.20;99.90
2955;DHT22;1487;51.470;6.938;2024-01-06T13:50:59;3.20;99.90
2955;DHT22;1487;51.470;6.938;2024-01-06T13:53:26;3.30;99.90
2955;DHT22;1487;51.470;6.938;2024-01-06T13:55:53;3.30;99.90
2955;DHT22;1487;51.470;6.938;2024-01-06T13:58:20;3.20;99.90
2955;DHT22;1487;51.470;6.938;2024-01-06T14:00:47;3.20;99.90
2955;DHT22;1487;51.470;6.938;2024-01-06T14:03:15;3.10;99.90
2955;DHT22;1487;51.470;6.938;2024-01-06T14:05:42;3.10;99.90
2955;DHT22;1487;51.470;6.938;2024-01-06T14:08:09;3.10;99.90
2955;DHT22;1487;51.470;6.938;2024-01-06T14:10:35;3.00;99.90
2955;DHT22;1487;51.470;6.938;2024-01-06T14:13:03;3.00;99.90
2955;DHT22;1487;51.470;6.938;2024-01-06T14:15:30;3.00;99.90
2955;DHT22;1487;51.470;6.938;2024-01-06T14:17:58;3.00;99.90
2955;DHT22;1487;51.470;6.938;2024-01-06T14:20:26;3.00;99.90
2955;DHT22;1487;51.470;6.938;2024-01-06T14:22:54;3.00;99.90
2955;DHT22;1487;51.470;6.938;2024-01-06T14:25:21;3.00;99.90
2955;DHT22;1487;51.470;6.938;2024-01-06T14:27:47;3.00;99.90
2955;DHT22;1487;51.470;6.938;2024-01-06T14:30:14;3.00;99.90
2955;DHT22;1487;51.470;6.938;2024-01-06T14:32:41;3.00;99.90
2955;DHT22;1487;51.470;6.938;2024-01-06T14:35:08;3.00;99.90
2955;DHT22;1487;51.470;6.938;2024-01-06T14:37:38;3.00;99.90
2955;DHT22;1487;51.470;6.938;2024-01-06T14:40:06;3.00;99.90
2955;DHT22;1487;51.470;6.938;2024-01-06T14:42:33;3.00;99.90
2955;DHT22;1487;51.470;6.938;2024-01-06T14:45:01;2.90;99.90
2955;DHT22;1487;51.470;6.938;2024-01-06T14:47:28;2.90;99.90
2955;DHT22;1487;51.470;6.938;2024-01-06T14:49:55;3.00;99.90
2955;DHT22;1487;51.470;6.938;2024-01-06T14:52:21;2.90;99.90
2955;DHT22;1487;51.470;6.938;2024-01-06T14:54:50;2.90;99.90
2955;DHT22;1487;51.470;6.938;2024-01-06T14:57:16;2.90;99.90
2955;DHT22;1487;51.470;6.938;2024-01-06T14:59:43;2.90;99.90
2955;DHT22;1487;51.470;6.938;2024-01-06T15:02:10;2.90;99.90
2955;DHT22;1487;51.470;6.938;2024-01-06T15:04:37;2.90;99.90
2955;DHT22;1487;51.470;6.938;2024-01-06T15:07:05;2.90;99.90
2955;DHT22;1487;51.470;6.938;2024-01-06T15:09:31;2.90;99.90
2955;DHT22;1487;51.470;6.938;2024-01-06T15:11:59;2.80;99.90
2955;DHT22;1487;51.470;6.938;2024-01-06T15:14:26;2.80;99.90
2955;DHT22;1487;51.470;6.938;2024-01-06T15:16:53;2.90;99.90
2955;DHT22;1487;51.470;6.938;2024-01-06T15:19:19;2.90;99.90
2955;DHT22;1487;51.470;6.938;2024-01-06T15:21:49;2.80;99.90
2955;DHT22;1487;51.470;6.938;2024-01-06T15:24:16;2.80;99.90
2955;DHT22;1487;51.470;6.938;2024-01-06T15:26:43;2.80;99.90
2955;DHT22;1487;51.470;6.938;2024-01-06T15:29:11;2.80;99.90
2955;DHT22;1487;51.470;6.938;2024-01-06T15:31:38;2.70;99.90
2955;DHT22;1487;51.470;6.938;2024-01-06T15:34:05;2.70;99.90
2955;DHT22;1487;51.470;6.938;2024-01-06T15:36:31;2.80;99.90
2955;DHT22;1487;51.470;6.938;2024-01-06T15:38:59;2.70;99.90
2955;DHT22;1487;51.470;6.938;2024-01-06T15:41:25;2.70;99.90
2955;DHT22;1487;51.470;6.938;2024-01-06T15:43:52;2.70;99.90
2955;DHT22;1487;51.470;6.938;2024-01-06T15:46:20;2.70;99.90
2955;DHT22;1487;51.470;6.938;2024-01-06T15:48:47;2.70;99.90
2955;DHT22;1487;51.470;6.938;2024-01-06T15:51:14;2.70;99.90
2955;DHT22;1487;51.470;6.938;2024-01-06T15:53:41;2.70;99.90
2955;DHT22;1487;51.470;6.938;2024-01-06T15:56:07;2.70;99.90
2955;DHT22;1487;51.470;6.938;2024-01-06T15:58:34;2.60;99.90
2955;DHT22;1487;51.470;6.938;2024-01-06T16:01:01;2.70;99.90
2955;DHT22;1487;51.470;6.938;2024-01-06T16:03:30;2.70;99.90
2955;DHT22;1487;51.470;6.938;2024-01-06T16:05:57;2.70;99.90
2955;DHT22;1487;51.470;6.938;2024-01-06T16:08:24;2.70;99.90
2955;DHT22;1487;51.470;6.938;2024-01-06T16:10:51;2.70;99.90
2955;DHT22;1487;51.470;6.938;2024-01-06T16:13:18;2.70;99.90
2955;DHT22;1487;51.470;6.938;2024-01-06T16:15:45;2.70;99.90
2955;DHT22;1487;51.470;6.938;2024-01-06T16:18:12;2.70;99.90